首页
METAR-TAF:

METAR-TAF

机场 :

赤塔機場

赤塔, 俄罗斯

纬度: 52-05N, 经度: 113-29E, 海拔: 685米

当前天气观测

该预报发布于21分钟前的20:30 UTC
风速4节,风向南转西南
温度 12°C
湿度 94%
气压 1010 hPa
能见度10公里或以上

METAR: UIAA 192030Z 21002MPS 9999 NSC 12/11 Q1010 R29/70D NOSIG RMK QFE699/0932

时间: 05:51 (20:51 UTC)

预报

该预报发布于51分钟前的20:00 UTC
预报有效从19日的 21点(UTC)到 20日的 21点(UTC)
风速6节,风向西转西北
能见度10公里或以上
散云层高于4000英尺, 积雨云.
短暂存在
从 19日的 21点(UTC)到 19日的 24点(UTC)
能見度: 0500
层高于100英尺

TAF: UIAA 192000Z 1921/2021 29003MPS 9999 SCT040CB TEMPO 1921/1924 0500 FG VV001

超过4000个机场的气象观测和天气预报(METAR&TAF报告)。

可查询的气象台以黄色和红色小点在地图上表示。

将鼠标移到小点上方,可查看气象台名称。

然后点击查看天气观测和预报。

如需切换地图:点击带黑十字的绿色按钮放大地图;点击带横线的绿色按钮缩小地图;或者点击绿色箭头查看邻近地区的地图。


METAR-TAF: